KAZE

Hazlehurst Airport

Hazlehurst, Georgia, USA
METAR KAZE 210630Z AUTO 07003KT 10SM 21/20 A3012 RMK AO2 T02130195
Observed Flight Rules
May-21 @ 06:30 UTC (32 minutes ago)
Wind Visibility
70° at 3 knots 10 miles
Temperatures Readings
Current 21°C / 70°F
Dewpoint 20°C / 68°F
Humidity 94%
Altimeter 30.12" Hg
Pressure 1020 hPa
Elevation 78
METAR KAZE 210630Z AUTO 07003KT 10SM 21/20 A3012 RMK AO2 T02130195
Observed Flight Rules
May-21 @ 06:30 UTC
(32 minutes ago)
Wind Visibility
70° at 3 knots 10 miles
Temperature Dewpoint
21°C / 70°F 20°C / 68°F
Humidity Altimeter Pressure
94% 30.12" Hg 1020 hPa